sensor_id;sensor_type;location;lat;lon;timestamp;pressure;altitude;pressure_sealevel;temperature;humidity
1371;BME280;14306;49.942;11.570;2023-08-20T00:01:35;97959.78;;;24.10;94.42
1371;BME280;14306;49.942;11.570;2023-08-20T00:04:06;97967.56;;;24.01;95.14
1371;BME280;14306;49.942;11.570;2023-08-20T00:06:38;97963.66;;;24.05;95.64
1371;BME280;14306;49.942;11.570;2023-08-20T00:09:06;97955.34;;;24.02;96.03
1371;BME280;14306;49.942;11.570;2023-08-20T00:11:36;97956.72;;;24.18;94.51
1371;BME280;14306;49.942;11.570;2023-08-20T00:14:05;97964.88;;;24.08;95.65
1371;BME280;14306;49.942;11.570;2023-08-20T00:16:34;97951.03;;;24.08;94.72
1371;BME280;14306;49.942;11.570;2023-08-20T00:19:05;97950.94;;;24.01;95.09
1371;BME280;14306;49.942;11.570;2023-08-20T00:21:34;97951.56;;;24.20;93.47
1371;BME280;14306;49.942;11.570;2023-08-20T00:24:03;97946.53;;;24.29;92.36
1371;BME280;14306;49.942;11.570;2023-08-20T00:26:32;97948.91;;;24.31;91.90
1371;BME280;14306;49.942;11.570;2023-08-20T00:29:00;97947.13;;;24.49;91.65
1371;BME280;14306;49.942;11.570;2023-08-20T00:31:30;97958.56;;;24.44;92.63
1371;BME280;14306;49.942;11.570;2023-08-20T00:33:59;97954.50;;;24.34;92.08
1371;BME280;14306;49.942;11.570;2023-08-20T00:36:35;97952.84;;;24.26;93.47
1371;BME280;14306;49.942;11.570;2023-08-20T00:39:03;97954.22;;;24.10;94.47
1371;BME280;14306;49.942;11.570;2023-08-20T00:41:32;97956.66;;;24.15;94.34
1371;BME280;14306;49.942;11.570;2023-08-20T00:44:00;97936.41;;;24.07;93.88
1371;BME280;14306;49.942;11.570;2023-08-20T00:46:28;97954.69;;;24.15;92.41
1371;BME280;14306;49.942;11.570;2023-08-20T00:48:57;97955.47;;;23.83;93.45
1371;BME280;14306;49.942;11.570;2023-08-20T00:51:25;97959.81;;;23.84;94.49
1371;BME280;14306;49.942;11.570;2023-08-20T00:53:55;97955.56;;;23.90;92.69
1371;BME280;14306;49.942;11.570;2023-08-20T00:56:23;97953.22;;;23.92;92.72
1371;BME280;14306;49.942;11.570;2023-08-20T00:58:53;97952.97;;;24.04;90.35
1371;BME280;14306;49.942;11.570;2023-08-20T01:01:23;97948.34;;;24.15;90.45
1371;BME280;14306;49.942;11.570;2023-08-20T01:03:53;97941.50;;;24.02;90.64
1371;BME280;14306;49.942;11.570;2023-08-20T01:06:29;97948.38;;;23.85;90.81
1371;BME280;14306;49.942;11.570;2023-08-20T01:09:07;97948.97;;;23.98;91.87
1371;BME280;14306;49.942;11.570;2023-08-20T01:11:42;97965.38;;;23.87;93.38
1371;BME280;14306;49.942;11.570;2023-08-20T01:14:16;97963.25;;;24.03;92.99
1371;BME280;14306;49.942;11.570;2023-08-20T01:16:46;97959.47;;;24.18;92.20
1371;BME280;14306;49.942;11.570;2023-08-20T01:19:18;97962.53;;;24.10;92.41
1371;BME280;14306;49.942;11.570;2023-08-20T01:21:56;97967.16;;;23.99;93.37
1371;BME280;14306;49.942;11.570;2023-08-20T01:24:38;97966.94;;;24.14;92.72
1371;BME280;14306;49.942;11.570;2023-08-20T01:27:28;97955.94;;;24.21;91.91
1371;BME280;14306;49.942;11.570;2023-08-20T01:30:02;97977.03;;;24.33;91.59
1371;BME280;14306;49.942;11.570;2023-08-20T01:32:31;97978.59;;;24.30;92.87
1371;BME280;14306;49.942;11.570;2023-08-20T01:35:01;97984.81;;;24.20;93.92
1371;BME280;14306;49.942;11.570;2023-08-20T01:37:29;97979.69;;;23.63;97.84
1371;BME280;14306;49.942;11.570;2023-08-20T01:39:57;97985.31;;;23.96;96.88
1371;BME280;14306;49.942;11.570;2023-08-20T01:42:25;97976.75;;;24.41;93.92
1371;BME280;14306;49.942;11.570;2023-08-20T01:44:53;97982.41;;;24.19;93.86
1371;BME280;14306;49.942;11.570;2023-08-20T01:47:23;97986.19;;;24.37;93.56
1371;BME280;14306;49.942;11.570;2023-08-20T01:49:51;97989.63;;;24.27;93.16
1371;BME280;14306;49.942;11.570;2023-08-20T01:52:19;97990.44;;;24.27;93.11
1371;BME280;14306;49.942;11.570;2023-08-20T01:54:48;97993.28;;;24.34;93.29
1371;BME280;14306;49.942;11.570;2023-08-20T01:57:16;97996.22;;;24.15;93.30
1371;BME280;14306;49.942;11.570;2023-08-20T01:59:44;98000.19;;;24.14;94.21
1371;BME280;14306;49.942;11.570;2023-08-20T02:02:12;98000.25;;;24.21;94.33
1371;BME280;14306;49.942;11.570;2023-08-20T02:04:42;98004.19;;;24.20;94.11
1371;BME280;14306;49.942;11.570;2023-08-20T02:07:10;98008.78;;;24.06;92.68
1371;BME280;14306;49.942;11.570;2023-08-20T02:09:38;98006.00;;;24.06;91.99
1371;BME280;14306;49.942;11.570;2023-08-20T02:12:07;98001.66;;;24.05;92.74
1371;BME280;14306;49.942;11.570;2023-08-20T02:14:36;98002.69;;;23.97;91.88
1371;BME280;14306;49.942;11.570;2023-08-20T02:17:04;97999.19;;;24.00;91.26
1371;BME280;14306;49.942;11.570;2023-08-20T02:19:33;97995.34;;;23.82;91.51
1371;BME280;14306;49.942;11.570;2023-08-20T02:22:02;97999.75;;;23.83;91.17
1371;BME280;14306;49.942;11.570;2023-08-20T02:24:31;97988.13;;;23.74;91.47
1371;BME280;14306;49.942;11.570;2023-08-20T02:26:59;97997.72;;;23.80;91.65
1371;BME280;14306;49.942;11.570;2023-08-20T02:29:27;97999.16;;;23.70;91.88
1371;BME280;14306;49.942;11.570;2023-08-20T02:31:55;97993.81;;;23.55;94.05
1371;BME280;14306;49.942;11.570;2023-08-20T02:34:24;97995.41;;;23.56;94.64
1371;BME280;14306;49.942;11.570;2023-08-20T02:36:52;98002.50;;;23.53;95.66
1371;BME280;14306;49.942;11.570;2023-08-20T02:39:21;97994.47;;;23.45;95.84
1371;BME280;14306;49.942;11.570;2023-08-20T02:41:51;97991.63;;;23.41;97.17
1371;BME280;14306;49.942;11.570;2023-08-20T02:44:20;97997.56;;;23.40;96.10
1371;BME280;14306;49.942;11.570;2023-08-20T02:46:50;97995.53;;;23.37;96.03
1371;BME280;14306;49.942;11.570;2023-08-20T02:49:18;97986.13;;;23.19;96.23
1371;BME280;14306;49.942;11.570;2023-08-20T02:51:46;97995.75;;;23.25;96.54
1371;BME280;14306;49.942;11.570;2023-08-20T02:54:14;97978.09;;;23.10;96.66
1371;BME280;14306;49.942;11.570;2023-08-20T02:56:44;97996.03;;;23.20;96.48
1371;BME280;14306;49.942;11.570;2023-08-20T02:59:12;97991.34;;;22.98;97.33
1371;BME280;14306;49.942;11.570;2023-08-20T03:01:40;97993.53;;;22.89;98.41
1371;BME280;14306;49.942;11.570;2023-08-20T03:04:09;97994.84;;;22.95;97.95
1371;BME280;14306;49.942;11.570;2023-08-20T03:06:38;97998.94;;;23.04;98.09
1371;BME280;14306;49.942;11.570;2023-08-20T03:09:06;97994.97;;;23.02;97.91
1371;BME280;14306;49.942;11.570;2023-08-20T03:11:34;97989.84;;;23.04;97.81
1371;BME280;14306;49.942;11.570;2023-08-20T03:14:05;97994.56;;;23.03;97.77
1371;BME280;14306;49.942;11.570;2023-08-20T03:16:33;97989.84;;;23.04;97.46
1371;BME280;14306;49.942;11.570;2023-08-20T03:19:04;97992.81;;;22.92;97.95
1371;BME280;14306;49.942;11.570;2023-08-20T03:21:32;97986.28;;;23.03;97.96
1371;BME280;14306;49.942;11.570;2023-08-20T03:24:00;97990.09;;;23.18;96.58
1371;BME280;14306;49.942;11.570;2023-08-20T03:26:28;97986.94;;;23.19;95.86
1371;BME280;14306;49.942;11.570;2023-08-20T03:28:56;97998.63;;;23.09;95.72
1371;BME280;14306;49.942;11.570;2023-08-20T03:31:26;97994.75;;;23.14;95.75
1371;BME280;14306;49.942;11.570;2023-08-20T03:33:55;97996.31;;;23.11;95.41
1371;BME280;14306;49.942;11.570;2023-08-20T03:36:23;97999.00;;;23.08;95.00
1371;BME280;14306;49.942;11.570;2023-08-20T03:38:51;98000.50;;;23.02;95.38
1371;BME280;14306;49.942;11.570;2023-08-20T03:41:20;98008.16;;;22.67;96.47
1371;BME280;14306;49.942;11.570;2023-08-20T03:43:48;98002.75;;;22.74;96.65
1371;BME280;14306;49.942;11.570;2023-08-20T03:46:16;98002.75;;;22.74;96.52
1371;BME280;14306;49.942;11.570;2023-08-20T03:48:46;97995.59;;;22.69;96.41
1371;BME280;14306;49.942;11.570;2023-08-20T03:51:14;98004.09;;;22.61;96.51
1371;BME280;14306;49.942;11.570;2023-08-20T03:53:42;98002.22;;;22.65;96.13
1371;BME280;14306;49.942;11.570;2023-08-20T03:56:10;98000.63;;;22.64;96.19
1371;BME280;14306;49.942;11.570;2023-08-20T03:58:39;98009.75;;;22.68;95.80
1371;BME280;14306;49.942;11.570;2023-08-20T04:01:06;98013.31;;;22.68;94.97
1371;BME280;14306;49.942;11.570;2023-08-20T04:03:35;98003.97;;;22.76;94.12
1371;BME280;14306;49.942;11.570;2023-08-20T04:06:04;97992.75;;;22.66;93.81
1371;BME280;14306;49.942;11.570;2023-08-20T04:08:33;98007.78;;;22.68;93.92
1371;BME280;14306;49.942;11.570;2023-08-20T04:11:01;98007.88;;;22.72;93.80
1371;BME280;14306;49.942;11.570;2023-08-20T04:13:30;98015.78;;;22.73;92.88
1371;BME280;14306;49.942;11.570;2023-08-20T04:15:58;98003.94;;;22.73;91.94
1371;BME280;14306;49.942;11.570;2023-08-20T04:18:26;98009.25;;;22.85;92.63
1371;BME280;14306;49.942;11.570;2023-08-20T04:20:54;98005.78;;;22.65;92.94
1371;BME280;14306;49.942;11.570;2023-08-20T04:23:25;98015.53;;;22.82;93.76
1371;BME280;14306;49.942;11.570;2023-08-20T04:25:53;98018.72;;;22.84;93.25
1371;BME280;14306;49.942;11.570;2023-08-20T04:28:21;98017.31;;;22.93;93.18
1371;BME280;14306;49.942;11.570;2023-08-20T04:30:52;98017.81;;;22.99;93.30
1371;BME280;14306;49.942;11.570;2023-08-20T04:33:21;98010.13;;;23.11;92.39
1371;BME280;14306;49.942;11.570;2023-08-20T04:35:49;98020.69;;;23.28;92.63
1371;BME280;14306;49.942;11.570;2023-08-20T04:38:18;98012.69;;;23.75;90.85
1371;BME280;14306;49.942;11.570;2023-08-20T04:40:47;98016.78;;;24.14;89.67
1371;BME280;14306;49.942;11.570;2023-08-20T04:43:15;98020.34;;;24.15;89.14
1371;BME280;14306;49.942;11.570;2023-08-20T04:45:43;98023.03;;;24.08;89.46
1371;BME280;14306;49.942;11.570;2023-08-20T04:48:12;98025.31;;;25.08;85.50
1371;BME280;14306;49.942;11.570;2023-08-20T04:50:39;98025.50;;;25.83;81.34
1371;BME280;14306;49.942;11.570;2023-08-20T04:53:07;98015.06;;;26.52;78.41
1371;BME280;14306;49.942;11.570;2023-08-20T04:55:36;98017.56;;;27.03;76.94
1371;BME280;14306;49.942;11.570;2023-08-20T04:58:05;98016.38;;;27.53;73.01
1371;BME280;14306;49.942;11.570;2023-08-20T05:00:33;98029.00;;;28.06;70.14
1371;BME280;14306;49.942;11.570;2023-08-20T05:03:01;98028.06;;;28.51;68.51
1371;BME280;14306;49.942;11.570;2023-08-20T05:05:29;98039.34;;;28.95;66.92
1371;BME280;14306;49.942;11.570;2023-08-20T05:07:57;98037.03;;;29.42;65.32
1371;BME280;14306;49.942;11.570;2023-08-20T05:10:25;98036.38;;;29.71;63.35
1371;BME280;14306;49.942;11.570;2023-08-20T05:12:53;98046.59;;;30.25;62.68
1371;BME280;14306;49.942;11.570;2023-08-20T05:15:22;98047.09;;;30.13;63.93
1371;BME280;14306;49.942;11.570;2023-08-20T05:17:50;98042.25;;;30.21;64.66
1371;BME280;14306;49.942;11.570;2023-08-20T05:20:18;98037.72;;;30.30;62.65
1371;BME280;14306;49.942;11.570;2023-08-20T05:22:47;98051.31;;;31.68;62.30
1371;BME280;14306;49.942;11.570;2023-08-20T05:25:15;98042.91;;;31.68;62.02
1371;BME280;14306;49.942;11.570;2023-08-20T05:27:43;98048.84;;;32.16;59.63
1371;BME280;14306;49.942;11.570;2023-08-20T05:30:11;98038.41;;;31.97;57.87
1371;BME280;14306;49.942;11.570;2023-08-20T05:32:41;98045.25;;;32.35;58.97
1371;BME280;14306;49.942;11.570;2023-08-20T05:35:09;98057.09;;;33.37;54.48
1371;BME280;14306;49.942;11.570;2023-08-20T05:37:37;98044.59;;;33.38;50.14
1371;BME280;14306;49.942;11.570;2023-08-20T05:40:06;98054.34;;;33.65;54.77
1371;BME280;14306;49.942;11.570;2023-08-20T05:42:35;98032.66;;;32.82;51.30
1371;BME280;14306;49.942;11.570;2023-08-20T05:45:04;98041.72;;;32.11;55.39
1371;BME280;14306;49.942;11.570;2023-08-20T05:47:32;98047.16;;;32.97;54.86
1371;BME280;14306;49.942;11.570;2023-08-20T05:50:01;98080.88;;;34.82;49.70
1371;BME280;14306;49.942;11.570;2023-08-20T05:52:29;98068.41;;;34.54;47.22
1371;BME280;14306;49.942;11.570;2023-08-20T05:54:58;98041.13;;;32.98;51.70
1371;BME280;14306;49.942;11.570;2023-08-20T05:57:25;98096.41;;;35.52;45.29
1371;BME280;14306;49.942;11.570;2023-08-20T05:59:53;98048.44;;;33.92;50.32
1371;BME280;14306;49.942;11.570;2023-08-20T06:02:21;98084.19;;;34.64;46.90
1371;BME280;14306;49.942;11.570;2023-08-20T06:04:49;98122.28;;;36.78;41.64
1371;BME280;14306;49.942;11.570;2023-08-20T06:07:19;98066.16;;;34.21;47.92
1371;BME280;14306;49.942;11.570;2023-08-20T06:09:47;98080.97;;;34.78;46.06
1371;BME280;14306;49.942;11.570;2023-08-20T06:12:16;98119.94;;;36.77;41.61
1371;BME280;14306;49.942;11.570;2023-08-20T06:14:45;98093.69;;;35.62;42.12
1371;BME280;14306;49.942;11.570;2023-08-20T06:17:12;98119.63;;;37.27;40.04
1371;BME280;14306;49.942;11.570;2023-08-20T06:19:41;98125.63;;;37.29;40.24
1371;BME280;14306;49.942;11.570;2023-08-20T06:22:09;98104.00;;;36.15;40.67
1371;BME280;14306;49.942;11.570;2023-08-20T06:24:39;98086.63;;;35.32;42.44
1371;BME280;14306;49.942;11.570;2023-08-20T06:27:06;98122.28;;;36.78;39.58
1371;BME280;14306;49.942;11.570;2023-08-20T06:29:35;98150.41;;;38.04;37.07
1371;BME280;14306;49.942;11.570;2023-08-20T06:32:04;98139.97;;;37.43;37.82
1371;BME280;14306;49.942;11.570;2023-08-20T06:34:34;98152.91;;;38.69;35.56
1371;BME280;14306;49.942;11.570;2023-08-20T06:37:03;98182.13;;;39.29;34.49
1371;BME280;14306;49.942;11.570;2023-08-20T06:39:31;98152.41;;;38.70;35.16
1371;BME280;14306;49.942;11.570;2023-08-20T06:42:01;98186.00;;;39.67;33.90
1371;BME280;14306;49.942;11.570;2023-08-20T06:44:29;98142.63;;;38.17;35.82
1371;BME280;14306;49.942;11.570;2023-08-20T06:46:57;98142.59;;;38.08;36.71
1371;BME280;14306;49.942;11.570;2023-08-20T06:49:25;98169.75;;;38.90;34.52
1371;BME280;14306;49.942;11.570;2023-08-20T06:51:54;98172.28;;;39.06;34.22
1371;BME280;14306;49.942;11.570;2023-08-20T06:54:22;98169.94;;;38.96;33.52
1371;BME280;14306;49.942;11.570;2023-08-20T06:56:50;98174.94;;;38.83;34.22
1371;BME280;14306;49.942;11.570;2023-08-20T06:59:20;98156.50;;;38.51;35.63
1371;BME280;14306;49.942;11.570;2023-08-20T07:01:47;98189.22;;;39.42;33.70
1371;BME280;14306;49.942;11.570;2023-08-20T07:04:15;98229.47;;;40.80;31.46
1371;BME280;14306;49.942;11.570;2023-08-20T07:06:43;98215.06;;;40.04;32.79
1371;BME280;14306;49.942;11.570;2023-08-20T07:09:11;98223.81;;;40.24;32.04
1371;BME280;14306;49.942;11.570;2023-08-20T07:11:39;98199.59;;;39.54;32.09
1371;BME280;14306;49.942;11.570;2023-08-20T07:14:08;98235.31;;;40.76;30.94
1371;BME280;14306;49.942;11.570;2023-08-20T07:16:37;98274.41;;;42.45;29.39
1371;BME280;14306;49.942;11.570;2023-08-20T07:19:05;98244.28;;;41.22;30.83
1371;BME280;14306;49.942;11.570;2023-08-20T07:21:33;98216.81;;;40.34;31.57
1371;BME280;14306;49.942;11.570;2023-08-20T07:24:01;98251.66;;;41.28;30.53
1371;BME280;14306;49.942;11.570;2023-08-20T07:26:29;98223.75;;;40.56;31.70
1371;BME280;14306;49.942;11.570;2023-08-20T07:28:58;98244.09;;;41.40;31.64
1371;BME280;14306;49.942;11.570;2023-08-20T07:31:26;98276.53;;;42.64;29.59
1371;BME280;14306;49.942;11.570;2023-08-20T07:33:57;98247.13;;;41.22;31.37
1371;BME280;14306;49.942;11.570;2023-08-20T07:36:31;98267.97;;;42.15;30.13
1371;BME280;14306;49.942;11.570;2023-08-20T07:38:59;98235.72;;;41.07;31.84
1371;BME280;14306;49.942;11.570;2023-08-20T07:41:28;98276.66;;;42.55;29.23
1371;BME280;14306;49.942;11.570;2023-08-20T07:43:57;98266.09;;;42.61;28.47
1371;BME280;14306;49.942;11.570;2023-08-20T07:46:25;98213.78;;;40.37;31.31
1371;BME280;14306;49.942;11.570;2023-08-20T07:48:53;98265.50;;;42.37;29.56
1371;BME280;14306;49.942;11.570;2023-08-20T07:51:22;98250.41;;;42.02;29.31
1371;BME280;14306;49.942;11.570;2023-08-20T07:53:50;98193.28;;;39.59;33.07
1371;BME280;14306;49.942;11.570;2023-08-20T07:56:18;98213.59;;;40.41;32.22
1371;BME280;14306;49.942;11.570;2023-08-20T07:58:46;98263.06;;;42.30;29.39
1371;BME280;14306;49.942;11.570;2023-08-20T08:01:15;98234.28;;;41.26;30.86
1371;BME280;14306;49.942;11.570;2023-08-20T08:03:43;98206.06;;;40.05;31.46
1371;BME280;14306;49.942;11.570;2023-08-20T08:06:12;98242.53;;;41.39;29.86
1371;BME280;14306;49.942;11.570;2023-08-20T08:08:42;98265.59;;;42.28;29.10
1371;BME280;14306;49.942;11.570;2023-08-20T08:11:11;98309.16;;;43.83;26.77
1371;BME280;14306;49.942;11.570;2023-08-20T08:13:39;98282.75;;;43.03;28.27
1371;BME280;14306;49.942;11.570;2023-08-20T08:16:07;98238.00;;;41.32;31.17
1371;BME280;14306;49.942;11.570;2023-08-20T08:18:36;98253.00;;;41.86;29.77
1371;BME280;14306;49.942;11.570;2023-08-20T08:21:04;98222.81;;;40.97;31.67
1371;BME280;14306;49.942;11.570;2023-08-20T08:23:32;98309.31;;;44.00;27.28
1371;BME280;14306;49.942;11.570;2023-08-20T08:26:02;98253.38;;;42.08;30.40
1371;BME280;14306;49.942;11.570;2023-08-20T08:28:30;98348.31;;;45.60;26.08
1371;BME280;14306;49.942;11.570;2023-08-20T08:30:58;98351.47;;;45.68;25.99
1371;BME280;14306;49.942;11.570;2023-08-20T08:33:26;98298.63;;;43.95;26.67
1371;BME280;14306;49.942;11.570;2023-08-20T08:35:56;98300.38;;;43.92;26.65
1371;BME280;14306;49.942;11.570;2023-08-20T08:38:25;98349.28;;;45.35;25.38
1371;BME280;14306;49.942;11.570;2023-08-20T08:40:55;98315.97;;;44.53;25.93
1371;BME280;14306;49.942;11.570;2023-08-20T08:43:24;98411.63;;;47.72;22.61
1371;BME280;14306;49.942;11.570;2023-08-20T08:45:55;98324.03;;;44.55;25.39
1371;BME280;14306;49.942;11.570;2023-08-20T08:48:25;98297.53;;;43.92;25.41
1371;BME280;14306;49.942;11.570;2023-08-20T08:50:53;98363.00;;;45.84;23.12
1371;BME280;14306;49.942;11.570;2023-08-20T08:53:23;98299.53;;;43.81;24.48
1371;BME280;14306;49.942;11.570;2023-08-20T08:55:52;98282.41;;;43.15;25.08
1371;BME280;14306;49.942;11.570;2023-08-20T08:58:21;98308.97;;;43.92;24.85
1371;BME280;14306;49.942;11.570;2023-08-20T09:00:50;98286.56;;;43.14;25.36
1371;BME280;14306;49.942;11.570;2023-08-20T09:03:18;98276.63;;;42.90;25.51
1371;BME280;14306;49.942;11.570;2023-08-20T09:05:47;98322.16;;;44.41;24.16
1371;BME280;14306;49.942;11.570;2023-08-20T09:08:21;98296.66;;;43.55;24.85
1371;BME280;14306;49.942;11.570;2023-08-20T09:10:51;98336.91;;;45.07;23.60
1371;BME280;14306;49.942;11.570;2023-08-20T09:13:22;98284.72;;;43.57;24.63
1371;BME280;14306;49.942;11.570;2023-08-20T09:15:53;98251.66;;;42.16;26.84
1371;BME280;14306;49.942;11.570;2023-08-20T09:18:22;98244.06;;;41.93;26.69
1371;BME280;14306;49.942;11.570;2023-08-20T09:20:50;98301.59;;;43.80;24.54
1371;BME280;14306;49.942;11.570;2023-08-20T09:23:22;98323.75;;;44.84;23.78
1371;BME280;14306;49.942;11.570;2023-08-20T09:25:50;98303.38;;;43.52;24.69
1371;BME280;14306;49.942;11.570;2023-08-20T09:28:21;98235.97;;;41.33;27.19
1371;BME280;14306;49.942;11.570;2023-08-20T09:30:58;98268.44;;;42.63;26.22
1371;BME280;14306;49.942;11.570;2023-08-20T09:33:29;98290.47;;;43.17;25.78
1371;BME280;14306;49.942;11.570;2023-08-20T09:35:57;98329.66;;;44.75;22.87
1371;BME280;14306;49.942;11.570;2023-08-20T09:38:25;98298.28;;;43.62;24.61
1371;BME280;14306;49.942;11.570;2023-08-20T09:40:54;98283.47;;;42.98;25.47
1371;BME280;14306;49.942;11.570;2023-08-20T09:43:24;98339.84;;;44.76;23.96
1371;BME280;14306;49.942;11.570;2023-08-20T09:45:56;98295.75;;;43.24;25.25
1371;BME280;14306;49.942;11.570;2023-08-20T09:48:27;98317.69;;;44.09;24.26
1371;BME280;14306;49.942;11.570;2023-08-20T09:51:04;98297.91;;;43.54;24.94
1371;BME280;14306;49.942;11.570;2023-08-20T09:53:35;98306.16;;;43.72;24.73
1371;BME280;14306;49.942;11.570;2023-08-20T09:56:10;98275.56;;;42.67;25.74
1371;BME280;14306;49.942;11.570;2023-08-20T09:58:40;98282.41;;;42.95;25.49
1371;BME280;14306;49.942;11.570;2023-08-20T10:01:12;98284.00;;;43.16;24.82
1371;BME280;14306;49.942;11.570;2023-08-20T10:03:41;98266.97;;;42.33;26.62
1371;BME280;14306;49.942;11.570;2023-08-20T10:06:12;98245.97;;;42.01;27.03
1371;BME280;14306;49.942;11.570;2023-08-20T10:08:40;98277.25;;;43.19;25.87
1371;BME280;14306;49.942;11.570;2023-08-20T10:11:09;98269.53;;;42.85;26.28
1371;BME280;14306;49.942;11.570;2023-08-20T10:13:37;98288.97;;;43.41;25.25
1371;BME280;14306;49.942;11.570;2023-08-20T10:16:05;98205.19;;;40.46;29.30
1371;BME280;14306;49.942;11.570;2023-08-20T10:18:37;98203.25;;;40.52;28.55
1371;BME280;14306;49.942;11.570;2023-08-20T10:21:05;98179.09;;;39.59;30.19
1371;BME280;14306;49.942;11.570;2023-08-20T10:23:34;98154.31;;;38.82;31.35
1371;BME280;14306;49.942;11.570;2023-08-20T10:26:09;98141.88;;;38.71;32.31
1371;BME280;14306;49.942;11.570;2023-08-20T10:28:40;98232.06;;;41.45;28.35
1371;BME280;14306;49.942;11.570;2023-08-20T10:31:09;98205.94;;;40.94;28.79
1371;BME280;14306;49.942;11.570;2023-08-20T10:33:49;98206.97;;;41.05;28.42
1371;BME280;14306;49.942;11.570;2023-08-20T10:36:18;98189.16;;;40.02;30.22
1371;BME280;14306;49.942;11.570;2023-08-20T10:38:50;98282.09;;;43.33;25.40
1371;BME280;14306;49.942;11.570;2023-08-20T10:41:24;98314.91;;;44.51;24.34
1371;BME280;14306;49.942;11.570;2023-08-20T10:43:52;98264.28;;;42.44;26.57
1371;BME280;14306;49.942;11.570;2023-08-20T10:46:21;98247.44;;;42.11;27.14
1371;BME280;14306;49.942;11.570;2023-08-20T10:48:52;98272.28;;;43.40;25.86
1371;BME280;14306;49.942;11.570;2023-08-20T10:51:26;98302.22;;;44.21;24.90
1371;BME280;14306;49.942;11.570;2023-08-20T10:54:05;98302.13;;;44.41;23.50
1371;BME280;14306;49.942;11.570;2023-08-20T10:56:41;98271.38;;;43.74;24.79
1371;BME280;14306;49.942;11.570;2023-08-20T10:59:13;98207.47;;;41.18;27.31
1371;BME280;14306;49.942;11.570;2023-08-20T11:01:44;98253.56;;;42.93;26.07
1371;BME280;14306;49.942;11.570;2023-08-20T11:04:13;98174.81;;;40.29;29.05
1371;BME280;14306;49.942;11.570;2023-08-20T11:06:43;98158.88;;;39.66;30.19
1371;BME280;14306;49.942;11.570;2023-08-20T11:09:12;98194.63;;;41.08;28.66
1371;BME280;14306;49.942;11.570;2023-08-20T11:11:40;98208.16;;;41.28;28.08
1371;BME280;14306;49.942;11.570;2023-08-20T11:14:12;98194.06;;;40.95;28.00
1371;BME280;14306;49.942;11.570;2023-08-20T11:16:41;98172.56;;;40.09;29.04
1371;BME280;14306;49.942;11.570;2023-08-20T11:19:10;98189.09;;;40.67;28.76
1371;BME280;14306;49.942;11.570;2023-08-20T11:21:40;98188.47;;;41.01;27.06
1371;BME280;14306;49.942;11.570;2023-08-20T11:24:09;98189.66;;;40.94;27.32
1371;BME280;14306;49.942;11.570;2023-08-20T11:26:39;98195.31;;;41.32;27.37
1371;BME280;14306;49.942;11.570;2023-08-20T11:29:08;98197.78;;;41.25;27.09
1371;BME280;14306;49.942;11.570;2023-08-20T11:31:36;98149.97;;;39.32;29.63
1371;BME280;14306;49.942;11.570;2023-08-20T11:34:06;98166.50;;;40.25;29.57
1371;BME280;14306;49.942;11.570;2023-08-20T11:36:34;98155.81;;;39.88;29.61
1371;BME280;14306;49.942;11.570;2023-08-20T11:39:04;98167.00;;;40.15;29.31
1371;BME280;14306;49.942;11.570;2023-08-20T11:41:36;98141.81;;;39.25;29.93
1371;BME280;14306;49.942;11.570;2023-08-20T11:44:05;98107.69;;;38.11;31.62
1371;BME280;14306;49.942;11.570;2023-08-20T11:46:32;98125.50;;;38.66;30.84
1371;BME280;14306;49.942;11.570;2023-08-20T11:49:02;98114.44;;;38.22;31.60
1371;BME280;14306;49.942;11.570;2023-08-20T11:51:35;98112.44;;;38.50;31.22
1371;BME280;14306;49.942;11.570;2023-08-20T11:54:07;98129.09;;;39.02;30.99
1371;BME280;14306;49.942;11.570;2023-08-20T11:56:35;98151.63;;;39.98;30.46
1371;BME280;14306;49.942;11.570;2023-08-20T11:59:10;98177.66;;;40.76;28.16
1371;BME280;14306;49.942;11.570;2023-08-20T12:01:38;98190.25;;;40.98;29.52
1371;BME280;14306;49.942;11.570;2023-08-20T12:04:08;98187.75;;;41.15;28.05
1371;BME280;14306;49.942;11.570;2023-08-20T12:06:37;98165.06;;;40.30;29.37
1371;BME280;14306;49.942;11.570;2023-08-20T12:09:19;98152.47;;;40.22;29.87
1371;BME280;14306;49.942;11.570;2023-08-20T12:11:48;98144.59;;;39.84;30.87
1371;BME280;14306;49.942;11.570;2023-08-20T12:14:18;98151.44;;;39.69;30.52
1371;BME280;14306;49.942;11.570;2023-08-20T12:16:46;98142.66;;;39.58;31.58
1371;BME280;14306;49.942;11.570;2023-08-20T12:19:14;98149.13;;;39.91;31.46
1371;BME280;14306;49.942;11.570;2023-08-20T12:21:42;98136.28;;;39.81;28.84
1371;BME280;14306;49.942;11.570;2023-08-20T12:24:10;98129.09;;;39.62;30.73
1371;BME280;14306;49.942;11.570;2023-08-20T12:26:40;98128.50;;;39.49;29.88
1371;BME280;14306;49.942;11.570;2023-08-20T12:29:09;98122.53;;;39.47;29.46
1371;BME280;14306;49.942;11.570;2023-08-20T12:31:37;98114.28;;;38.89;32.24
1371;BME280;14306;49.942;11.570;2023-08-20T12:34:06;98079.53;;;38.07;33.27
1371;BME280;14306;49.942;11.570;2023-08-20T12:36:35;98093.03;;;38.21;31.69
1371;BME280;14306;49.942;11.570;2023-08-20T12:39:04;98076.38;;;38.05;32.66
1371;BME280;14306;49.942;11.570;2023-08-20T12:41:32;98087.84;;;38.38;31.61
1371;BME280;14306;49.942;11.570;2023-08-20T12:44:01;98080.78;;;38.15;32.16
1371;BME280;14306;49.942;11.570;2023-08-20T12:46:29;98067.63;;;37.82;34.06
1371;BME280;14306;49.942;11.570;2023-08-20T12:48:57;98056.78;;;37.62;33.80
1371;BME280;14306;49.942;11.570;2023-08-20T12:51:26;98059.31;;;37.69;32.98
1371;BME280;14306;49.942;11.570;2023-08-20T12:53:54;98040.47;;;37.05;33.94
1371;BME280;14306;49.942;11.570;2023-08-20T12:56:21;98025.56;;;36.74;34.45
1371;BME280;14306;49.942;11.570;2023-08-20T12:58:50;98027.81;;;36.88;32.40
1371;BME280;14306;49.942;11.570;2023-08-20T13:01:19;98043.16;;;37.39;31.92
1371;BME280;14306;49.942;11.570;2023-08-20T13:03:47;98023.75;;;36.89;33.70
1371;BME280;14306;49.942;11.570;2023-08-20T13:06:17;98022.41;;;36.72;34.15
1371;BME280;14306;49.942;11.570;2023-08-20T13:08:45;98028.63;;;36.67;34.37
1371;BME280;14306;49.942;11.570;2023-08-20T13:11:14;98009.41;;;36.32;34.19